sensor_id;sensor_type;location;lat;lon;timestamp;temperature;humidity
3701;DHT22;1866;48.374;10.766;2023-04-03T00:00:41;2.70;1.00
3701;DHT22;1866;48.374;10.766;2023-04-03T00:03:09;2.70;1.00
3701;DHT22;1866;48.374;10.766;2023-04-03T00:05:36;2.80;1.00
3701;DHT22;1866;48.374;10.766;2023-04-03T00:08:04;2.60;1.00
3701;DHT22;1866;48.374;10.766;2023-04-03T00:10:33;2.60;1.00
3701;DHT22;1866;48.374;10.766;2023-04-03T00:13:03;2.80;1.00
3701;DHT22;1866;48.374;10.766;2023-04-03T00:15:31;2.80;1.00
3701;DHT22;1866;48.374;10.766;2023-04-03T00:17:59;2.60;1.00
3701;DHT22;1866;48.374;10.766;2023-04-03T00:20:27;2.70;1.00
3701;DHT22;1866;48.374;10.766;2023-04-03T00:22:54;2.70;1.00
3701;DHT22;1866;48.374;10.766;2023-04-03T00:25:24;2.60;1.00
3701;DHT22;1866;48.374;10.766;2023-04-03T00:27:50;2.60;1.00
3701;DHT22;1866;48.374;10.766;2023-04-03T00:30:19;2.50;1.00
3701;DHT22;1866;48.374;10.766;2023-04-03T00:32:47;2.60;1.00
3701;DHT22;1866;48.374;10.766;2023-04-03T00:35:14;2.60;1.00
3701;DHT22;1866;48.374;10.766;2023-04-03T00:37:43;2.70;1.00
3701;DHT22;1866;48.374;10.766;2023-04-03T00:40:12;2.60;1.00
3701;DHT22;1866;48.374;10.766;2023-04-03T00:42:40;2.60;1.00
3701;DHT22;1866;48.374;10.766;2023-04-03T00:45:29;2.60;1.00
3701;DHT22;1866;48.374;10.766;2023-04-03T00:47:58;2.60;1.00
3701;DHT22;1866;48.374;10.766;2023-04-03T00:50:27;2.60;1.00
3701;DHT22;1866;48.374;10.766;2023-04-03T00:52:56;2.60;1.00
3701;DHT22;1866;48.374;10.766;2023-04-03T00:55:23;2.60;1.00
3701;DHT22;1866;48.374;10.766;2023-04-03T00:57:52;2.70;1.00
3701;DHT22;1866;48.374;10.766;2023-04-03T01:00:20;2.70;1.00
3701;DHT22;1866;48.374;10.766;2023-04-03T01:02:48;2.50;1.00
3701;DHT22;1866;48.374;10.766;2023-04-03T01:05:17;2.50;1.00
3701;DHT22;1866;48.374;10.766;2023-04-03T01:07:45;2.50;1.00
3701;DHT22;1866;48.374;10.766;2023-04-03T01:10:15;2.60;1.00
3701;DHT22;1866;48.374;10.766;2023-04-03T01:12:46;2.60;1.00
3701;DHT22;1866;48.374;10.766;2023-04-03T01:15:15;2.50;1.00
3701;DHT22;1866;48.374;10.766;2023-04-03T01:17:44;2.60;1.00
3701;DHT22;1866;48.374;10.766;2023-04-03T01:23:34;2.50;1.00
3701;DHT22;1866;48.374;10.766;2023-04-03T01:26:03;2.50;1.00
3701;DHT22;1866;48.374;10.766;2023-04-03T01:28:32;2.50;1.00
3701;DHT22;1866;48.374;10.766;2023-04-03T01:31:04;2.60;1.00
3701;DHT22;1866;48.374;10.766;2023-04-03T01:33:35;2.50;1.00
3701;DHT22;1866;48.374;10.766;2023-04-03T01:36:02;2.50;1.00
3701;DHT22;1866;48.374;10.766;2023-04-03T01:38:29;2.40;1.00
3701;DHT22;1866;48.374;10.766;2023-04-03T01:40:57;2.70;1.00
3701;DHT22;1866;48.374;10.766;2023-04-03T01:43:23;2.60;1.00
3701;DHT22;1866;48.374;10.766;2023-04-03T01:45:50;2.40;1.00
3701;DHT22;1866;48.374;10.766;2023-04-03T01:48:22;2.40;1.00
3701;DHT22;1866;48.374;10.766;2023-04-03T01:50:50;2.40;1.00
3701;DHT22;1866;48.374;10.766;2023-04-03T01:53:17;2.40;1.00
3701;DHT22;1866;48.374;10.766;2023-04-03T01:55:44;2.60;1.00
3701;DHT22;1866;48.374;10.766;2023-04-03T01:58:10;2.60;1.00
3701;DHT22;1866;48.374;10.766;2023-04-03T02:00:37;2.40;1.00
3701;DHT22;1866;48.374;10.766;2023-04-03T02:03:04;2.50;1.00
3701;DHT22;1866;48.374;10.766;2023-04-03T02:05:34;2.40;1.00
3701;DHT22;1866;48.374;10.766;2023-04-03T02:08:02;2.50;1.00
3701;DHT22;1866;48.374;10.766;2023-04-03T02:10:29;2.50;1.00
3701;DHT22;1866;48.374;10.766;2023-04-03T02:12:56;2.50;1.00
3701;DHT22;1866;48.374;10.766;2023-04-03T02:15:23;2.40;1.00
3701;DHT22;1866;48.374;10.766;2023-04-03T02:17:50;2.50;1.00
3701;DHT22;1866;48.374;10.766;2023-04-03T02:20:18;2.50;1.00
3701;DHT22;1866;48.374;10.766;2023-04-03T02:22:45;2.60;1.00
3701;DHT22;1866;48.374;10.766;2023-04-03T02:25:13;2.50;1.00
3701;DHT22;1866;48.374;10.766;2023-04-03T02:27:40;2.40;1.00
3701;DHT22;1866;48.374;10.766;2023-04-03T02:30:08;2.50;1.00
3701;DHT22;1866;48.374;10.766;2023-04-03T02:32:36;2.60;1.00
3701;DHT22;1866;48.374;10.766;2023-04-03T02:35:03;2.40;1.00
3701;DHT22;1866;48.374;10.766;2023-04-03T02:37:30;2.40;1.00
3701;DHT22;1866;48.374;10.766;2023-04-03T02:39:58;2.40;1.00
3701;DHT22;1866;48.374;10.766;2023-04-03T02:42:26;2.40;1.00
3701;DHT22;1866;48.374;10.766;2023-04-03T02:44:54;2.30;1.00
3701;DHT22;1866;48.374;10.766;2023-04-03T02:47:21;2.40;1.00
3701;DHT22;1866;48.374;10.766;2023-04-03T02:49:48;2.30;1.00
3701;DHT22;1866;48.374;10.766;2023-04-03T02:52:18;2.50;1.00
3701;DHT22;1866;48.374;10.766;2023-04-03T02:54:45;2.50;1.00
3701;DHT22;1866;48.374;10.766;2023-04-03T02:57:13;2.40;1.00
3701;DHT22;1866;48.374;10.766;2023-04-03T02:59:43;2.30;1.00
3701;DHT22;1866;48.374;10.766;2023-04-03T03:02:10;2.40;1.00
3701;DHT22;1866;48.374;10.766;2023-04-03T03:04:37;2.40;1.00
3701;DHT22;1866;48.374;10.766;2023-04-03T03:07:04;2.30;1.00
3701;DHT22;1866;48.374;10.766;2023-04-03T03:09:32;2.30;1.00
3701;DHT22;1866;48.374;10.766;2023-04-03T03:11:59;2.30;1.00
3701;DHT22;1866;48.374;10.766;2023-04-03T03:14:29;2.30;1.00
3701;DHT22;1866;48.374;10.766;2023-04-03T03:16:57;2.30;1.00
3701;DHT22;1866;48.374;10.766;2023-04-03T03:19:26;2.30;1.00
3701;DHT22;1866;48.374;10.766;2023-04-03T03:21:53;2.30;1.00
3701;DHT22;1866;48.374;10.766;2023-04-03T03:24:20;2.40;1.00
3701;DHT22;1866;48.374;10.766;2023-04-03T03:26:48;2.40;1.00
3701;DHT22;1866;48.374;10.766;2023-04-03T03:29:15;2.30;1.00
3701;DHT22;1866;48.374;10.766;2023-04-03T03:31:43;2.30;1.00
3701;DHT22;1866;48.374;10.766;2023-04-03T03:34:12;2.30;1.00
3701;DHT22;1866;48.374;10.766;2023-04-03T03:36:40;2.30;1.00
3701;DHT22;1866;48.374;10.766;2023-04-03T03:39:07;2.30;1.00
3701;DHT22;1866;48.374;10.766;2023-04-03T03:41:35;2.30;1.00
3701;DHT22;1866;48.374;10.766;2023-04-03T03:44:02;2.20;1.00
3701;DHT22;1866;48.374;10.766;2023-04-03T03:46:29;2.30;1.00
3701;DHT22;1866;48.374;10.766;2023-04-03T03:48:56;2.30;1.00
3701;DHT22;1866;48.374;10.766;2023-04-03T03:51:24;2.30;1.00
3701;DHT22;1866;48.374;10.766;2023-04-03T03:53:51;2.20;1.00
3701;DHT22;1866;48.374;10.766;2023-04-03T03:56:19;2.30;1.00
3701;DHT22;1866;48.374;10.766;2023-04-03T03:58:45;2.30;1.00
3701;DHT22;1866;48.374;10.766;2023-04-03T04:01:12;2.20;1.00
3701;DHT22;1866;48.374;10.766;2023-04-03T04:03:39;2.20;1.00
3701;DHT22;1866;48.374;10.766;2023-04-03T04:06:06;2.30;1.00
3701;DHT22;1866;48.374;10.766;2023-04-03T04:08:34;2.20;1.00
3701;DHT22;1866;48.374;10.766;2023-04-03T04:11:00;2.20;1.00
3701;DHT22;1866;48.374;10.766;2023-04-03T04:13:27;2.20;1.00
3701;DHT22;1866;48.374;10.766;2023-04-03T04:15:55;2.20;1.00
3701;DHT22;1866;48.374;10.766;2023-04-03T04:18:22;2.20;1.00
3701;DHT22;1866;48.374;10.766;2023-04-03T04:20:49;2.20;1.00
3701;DHT22;1866;48.374;10.766;2023-04-03T04:23:18;2.20;1.00
3701;DHT22;1866;48.374;10.766;2023-04-03T04:25:48;2.20;1.00
3701;DHT22;1866;48.374;10.766;2023-04-03T04:28:15;2.20;1.00
3701;DHT22;1866;48.374;10.766;2023-04-03T04:30:42;2.20;1.00
3701;DHT22;1866;48.374;10.766;2023-04-03T04:33:09;2.10;1.00
3701;DHT22;1866;48.374;10.766;2023-04-03T04:35:36;2.20;1.00
3701;DHT22;1866;48.374;10.766;2023-04-03T04:38:02;2.20;1.00
3701;DHT22;1866;48.374;10.766;2023-04-03T04:40:30;2.20;1.00
3701;DHT22;1866;48.374;10.766;2023-04-03T04:42:59;2.20;1.00
3701;DHT22;1866;48.374;10.766;2023-04-03T04:45:26;2.20;1.00
3701;DHT22;1866;48.374;10.766;2023-04-03T04:47:54;2.20;1.00
3701;DHT22;1866;48.374;10.766;2023-04-03T04:50:21;2.10;1.00
3701;DHT22;1866;48.374;10.766;2023-04-03T04:52:48;2.10;1.00
3701;DHT22;1866;48.374;10.766;2023-04-03T04:55:15;2.20;1.00
3701;DHT22;1866;48.374;10.766;2023-04-03T04:57:41;2.20;1.00
3701;DHT22;1866;48.374;10.766;2023-04-03T05:00:11;2.10;1.00
3701;DHT22;1866;48.374;10.766;2023-04-03T05:02:38;2.10;1.00
3701;DHT22;1866;48.374;10.766;2023-04-03T05:05:07;2.10;1.00
3701;DHT22;1866;48.374;10.766;2023-04-03T05:07:33;2.10;1.00
3701;DHT22;1866;48.374;10.766;2023-04-03T05:10:00;2.10;1.00
3701;DHT22;1866;48.374;10.766;2023-04-03T05:12:34;2.10;1.00
3701;DHT22;1866;48.374;10.766;2023-04-03T05:15:00;2.10;1.00
3701;DHT22;1866;48.374;10.766;2023-04-03T05:17:29;2.20;1.00
3701;DHT22;1866;48.374;10.766;2023-04-03T05:19:56;2.20;1.00
3701;DHT22;1866;48.374;10.766;2023-04-03T05:22:22;2.10;1.00
3701;DHT22;1866;48.374;10.766;2023-04-03T05:24:49;2.10;1.00
3701;DHT22;1866;48.374;10.766;2023-04-03T05:27:16;2.10;1.00
3701;DHT22;1866;48.374;10.766;2023-04-03T05:29:43;2.10;1.00
3701;DHT22;1866;48.374;10.766;2023-04-03T05:32:10;2.10;1.00
3701;DHT22;1866;48.374;10.766;2023-04-03T05:34:38;2.10;1.00
3701;DHT22;1866;48.374;10.766;2023-04-03T05:37:05;2.10;1.00
3701;DHT22;1866;48.374;10.766;2023-04-03T05:39:31;2.10;1.00
3701;DHT22;1866;48.374;10.766;2023-04-03T05:41:59;2.10;1.00
3701;DHT22;1866;48.374;10.766;2023-04-03T05:44:27;2.10;1.00
3701;DHT22;1866;48.374;10.766;2023-04-03T05:46:54;2.20;1.00
3701;DHT22;1866;48.374;10.766;2023-04-03T05:49:21;2.10;1.00
3701;DHT22;1866;48.374;10.766;2023-04-03T05:51:51;2.10;1.00
3701;DHT22;1866;48.374;10.766;2023-04-03T05:54:18;2.10;1.00
3701;DHT22;1866;48.374;10.766;2023-04-03T05:56:45;2.10;1.00
3701;DHT22;1866;48.374;10.766;2023-04-03T05:59:12;2.30;1.00
3701;DHT22;1866;48.374;10.766;2023-04-03T06:01:39;2.10;1.00
3701;DHT22;1866;48.374;10.766;2023-04-03T06:04:06;2.10;1.00
3701;DHT22;1866;48.374;10.766;2023-04-03T06:06:45;2.10;1.00
3701;DHT22;1866;48.374;10.766;2023-04-03T06:09:13;2.20;1.00
3701;DHT22;1866;48.374;10.766;2023-04-03T06:11:40;2.10;1.00
3701;DHT22;1866;48.374;10.766;2023-04-03T06:14:08;2.10;1.00
3701;DHT22;1866;48.374;10.766;2023-04-03T06:16:35;2.20;1.00
3701;DHT22;1866;48.374;10.766;2023-04-03T06:19:02;2.20;1.00
3701;DHT22;1866;48.374;10.766;2023-04-03T06:21:29;2.10;1.00
3701;DHT22;1866;48.374;10.766;2023-04-03T06:23:56;2.20;1.00
3701;DHT22;1866;48.374;10.766;2023-04-03T06:26:24;2.20;1.00
3701;DHT22;1866;48.374;10.766;2023-04-03T06:28:52;2.20;1.00
3701;DHT22;1866;48.374;10.766;2023-04-03T06:31:21;2.20;1.00
3701;DHT22;1866;48.374;10.766;2023-04-03T06:33:48;2.30;1.00
3701;DHT22;1866;48.374;10.766;2023-04-03T06:36:18;2.30;1.00
3701;DHT22;1866;48.374;10.766;2023-04-03T06:38:48;2.40;1.00
3701;DHT22;1866;48.374;10.766;2023-04-03T06:41:16;2.40;1.00
3701;DHT22;1866;48.374;10.766;2023-04-03T06:43:44;2.40;1.00
3701;DHT22;1866;48.374;10.766;2023-04-03T06:46:15;2.50;1.00
3701;DHT22;1866;48.374;10.766;2023-04-03T06:48:44;2.40;1.00
3701;DHT22;1866;48.374;10.766;2023-04-03T06:51:19;2.50;1.00
3701;DHT22;1866;48.374;10.766;2023-04-03T06:53:46;2.40;1.00
3701;DHT22;1866;48.374;10.766;2023-04-03T06:56:14;2.40;1.00
3701;DHT22;1866;48.374;10.766;2023-04-03T06:58:44;2.50;1.00
3701;DHT22;1866;48.374;10.766;2023-04-03T07:01:15;2.50;1.00
3701;DHT22;1866;48.374;10.766;2023-04-03T07:03:42;2.50;1.00
3701;DHT22;1866;48.374;10.766;2023-04-03T07:06:09;2.50;1.00
3701;DHT22;1866;48.374;10.766;2023-04-03T07:08:37;2.60;1.00
3701;DHT22;1866;48.374;10.766;2023-04-03T07:11:05;2.60;1.00
3701;DHT22;1866;48.374;10.766;2023-04-03T07:13:34;2.60;1.00
3701;DHT22;1866;48.374;10.766;2023-04-03T07:16:03;2.80;1.00
3701;DHT22;1866;48.374;10.766;2023-04-03T07:18:31;2.70;1.00
3701;DHT22;1866;48.374;10.766;2023-04-03T07:21:00;2.70;1.00
3701;DHT22;1866;48.374;10.766;2023-04-03T07:23:27;2.70;1.00
3701;DHT22;1866;48.374;10.766;2023-04-03T07:25:55;2.80;1.00
3701;DHT22;1866;48.374;10.766;2023-04-03T07:28:22;2.80;1.00
3701;DHT22;1866;48.374;10.766;2023-04-03T07:30:50;2.90;1.00
3701;DHT22;1866;48.374;10.766;2023-04-03T07:33:20;2.80;1.00
3701;DHT22;1866;48.374;10.766;2023-04-03T07:35:48;2.80;1.00
3701;DHT22;1866;48.374;10.766;2023-04-03T07:38:15;2.80;1.00
3701;DHT22;1866;48.374;10.766;2023-04-03T07:40:45;3.00;1.00
3701;DHT22;1866;48.374;10.766;2023-04-03T07:43:12;3.00;1.00
3701;DHT22;1866;48.374;10.766;2023-04-03T07:45:41;3.00;1.00
3701;DHT22;1866;48.374;10.766;2023-04-03T07:48:09;3.10;1.00
3701;DHT22;1866;48.374;10.766;2023-04-03T07:50:39;3.10;1.00
3701;DHT22;1866;48.374;10.766;2023-04-03T07:53:08;3.30;1.00
3701;DHT22;1866;48.374;10.766;2023-04-03T07:55:35;3.40;1.00
3701;DHT22;1866;48.374;10.766;2023-04-03T07:58:09;3.10;1.00
3701;DHT22;1866;48.374;10.766;2023-04-03T08:00:38;3.10;1.00
3701;DHT22;1866;48.374;10.766;2023-04-03T08:03:06;3.20;1.00
3701;DHT22;1866;48.374;10.766;2023-04-03T08:05:37;3.30;1.00
3701;DHT22;1866;48.374;10.766;2023-04-03T08:08:05;3.40;1.00
3701;DHT22;1866;48.374;10.766;2023-04-03T08:10:32;3.20;1.00
3701;DHT22;1866;48.374;10.766;2023-04-03T08:13:01;3.20;1.00
3701;DHT22;1866;48.374;10.766;2023-04-03T08:15:29;3.30;1.00
3701;DHT22;1866;48.374;10.766;2023-04-03T08:17:58;3.50;1.00
3701;DHT22;1866;48.374;10.766;2023-04-03T08:20:28;3.50;1.00
3701;DHT22;1866;48.374;10.766;2023-04-03T08:22:57;3.30;1.00
3701;DHT22;1866;48.374;10.766;2023-04-03T08:25:24;3.40;1.00
3701;DHT22;1866;48.374;10.766;2023-04-03T08:27:51;3.20;1.00
3701;DHT22;1866;48.374;10.766;2023-04-03T08:30:18;3.40;1.00
3701;DHT22;1866;48.374;10.766;2023-04-03T08:32:45;3.60;1.00
3701;DHT22;1866;48.374;10.766;2023-04-03T08:35:13;3.60;1.00
3701;DHT22;1866;48.374;10.766;2023-04-03T08:37:41;3.60;1.00
3701;DHT22;1866;48.374;10.766;2023-04-03T08:40:13;3.50;1.00
3701;DHT22;1866;48.374;10.766;2023-04-03T08:45:42;3.60;1.00
3701;DHT22;1866;48.374;10.766;2023-04-03T08:48:14;3.90;1.00
3701;DHT22;1866;48.374;10.766;2023-04-03T08:50:44;3.90;1.00
3701;DHT22;1866;48.374;10.766;2023-04-03T08:53:15;3.90;1.00
3701;DHT22;1866;48.374;10.766;2023-04-03T08:55:45;3.70;1.00
3701;DHT22;1866;48.374;10.766;2023-04-03T08:58:15;4.00;1.00
3701;DHT22;1866;48.374;10.766;2023-04-03T09:00:46;4.00;1.00
3701;DHT22;1866;48.374;10.766;2023-04-03T09:03:15;3.80;1.00
3701;DHT22;1866;48.374;10.766;2023-04-03T09:05:46;3.90;1.00
3701;DHT22;1866;48.374;10.766;2023-04-03T09:08:22;4.10;1.00
3701;DHT22;1866;48.374;10.766;2023-04-03T09:10:55;3.80;1.00
3701;DHT22;1866;48.374;10.766;2023-04-03T09:13:33;3.80;1.00
3701;DHT22;1866;48.374;10.766;2023-04-03T09:16:10;3.80;1.00
3701;DHT22;1866;48.374;10.766;2023-04-03T09:18:45;3.70;1.00
3701;DHT22;1866;48.374;10.766;2023-04-03T09:21:20;3.70;1.00
3701;DHT22;1866;48.374;10.766;2023-04-03T09:23:52;3.70;1.00
3701;DHT22;1866;48.374;10.766;2023-04-03T09:26:25;3.80;1.00
3701;DHT22;1866;48.374;10.766;2023-04-03T09:28:59;3.90;1.00
3701;DHT22;1866;48.374;10.766;2023-04-03T09:31:32;3.90;1.00
3701;DHT22;1866;48.374;10.766;2023-04-03T09:34:04;3.90;1.00
3701;DHT22;1866;48.374;10.766;2023-04-03T09:36:51;4.10;1.00
3701;DHT22;1866;48.374;10.766;2023-04-03T09:39:21;4.00;1.00
3701;DHT22;1866;48.374;10.766;2023-04-03T09:42:00;3.90;1.00
3701;DHT22;1866;48.374;10.766;2023-04-03T09:44:29;4.00;1.00
3701;DHT22;1866;48.374;10.766;2023-04-03T09:46:57;4.00;1.00
3701;DHT22;1866;48.374;10.766;2023-04-03T09:49:24;3.70;1.00
3701;DHT22;1866;48.374;10.766;2023-04-03T09:51:53;3.80;1.00
3701;DHT22;1866;48.374;10.766;2023-04-03T09:54:32;4.00;1.00
3701;DHT22;1866;48.374;10.766;2023-04-03T09:57:07;3.80;1.00
3701;DHT22;1866;48.374;10.766;2023-04-03T09:59:34;3.80;1.00
3701;DHT22;1866;48.374;10.766;2023-04-03T10:02:03;3.80;1.00
3701;DHT22;1866;48.374;10.766;2023-04-03T10:04:39;3.90;1.00
3701;DHT22;1866;48.374;10.766;2023-04-03T10:07:28;4.00;1.00
3701;DHT22;1866;48.374;10.766;2023-04-03T10:09:56;3.90;1.00
3701;DHT22;1866;48.374;10.766;2023-04-03T10:12:25;3.90;1.00
3701;DHT22;1866;48.374;10.766;2023-04-03T10:14:57;4.10;1.00
3701;DHT22;1866;48.374;10.766;2023-04-03T10:17:37;3.90;1.00
3701;DHT22;1866;48.374;10.766;2023-04-03T10:20:18;4.10;1.00
3701;DHT22;1866;48.374;10.766;2023-04-03T10:22:59;4.40;1.00
3701;DHT22;1866;48.374;10.766;2023-04-03T10:25:30;4.40;1.00
3701;DHT22;1866;48.374;10.766;2023-04-03T10:28:07;4.30;1.00
3701;DHT22;1866;48.374;10.766;2023-04-03T10:30:43;4.20;1.00
3701;DHT22;1866;48.374;10.766;2023-04-03T10:33:36;4.30;1.00
3701;DHT22;1866;48.374;10.766;2023-04-03T10:36:12;4.30;1.00
3701;DHT22;1866;48.374;10.766;2023-04-03T10:38:48;4.10;1.00
3701;DHT22;1866;48.374;10.766;2023-04-03T10:41:24;4.20;1.00
3701;DHT22;1866;48.374;10.766;2023-04-03T10:44:10;4.20;1.00
3701;DHT22;1866;48.374;10.766;2023-04-03T10:46:42;4.30;1.00
3701;DHT22;1866;48.374;10.766;2023-04-03T10:49:25;4.20;1.00
3701;DHT22;1866;48.374;10.766;2023-04-03T10:51:57;4.20;1.00
3701;DHT22;1866;48.374;10.766;2023-04-03T10:54:31;4.30;1.00
3701;DHT22;1866;48.374;10.766;2023-04-03T10:57:03;4.40;1.00
3701;DHT22;1866;48.374;10.766;2023-04-03T10:59:36;4.50;1.00
3701;DHT22;1866;48.374;10.766;2023-04-03T11:02:07;4.40;1.00
3701;DHT22;1866;48.374;10.766;2023-04-03T11:04:36;4.60;1.00
3701;DHT22;1866;48.374;10.766;2023-04-03T11:07:09;4.50;1.00
3701;DHT22;1866;48.374;10.766;2023-04-03T11:09:40;4.50;1.00
3701;DHT22;1866;48.374;10.766;2023-04-03T11:12:13;4.60;1.00
3701;DHT22;1866;48.374;10.766;2023-04-03T11:14:43;4.70;1.00
3701;DHT22;1866;48.374;10.766;2023-04-03T11:17:19;4.50;1.00
3701;DHT22;1866;48.374;10.766;2023-04-03T11:19:52;4.50;1.00
3701;DHT22;1866;48.374;10.766;2023-04-03T11:22:26;4.40;1.00
3701;DHT22;1866;48.374;10.766;2023-04-03T11:25:02;4.50;1.00
3701;DHT22;1866;48.374;10.766;2023-04-03T11:27:37;4.40;1.00
3701;DHT22;1866;48.374;10.766;2023-04-03T11:30:14;4.50;1.00
3701;DHT22;1866;48.374;10.766;2023-04-03T11:35:45;4.40;1.00
3701;DHT22;1866;48.374;10.766;2023-04-03T11:38:19;4.30;1.00
3701;DHT22;1866;48.374;10.766;2023-04-03T11:40:49;4.40;1.00
3701;DHT22;1866;48.374;10.766;2023-04-03T11:43:27;4.40;1.00
3701;DHT22;1866;48.374;10.766;2023-04-03T11:45:58;4.20;1.00
3701;DHT22;1866;48.374;10.766;2023-04-03T11:48:50;4.20;1.00
3701;DHT22;1866;48.374;10.766;2023-04-03T11:51:41;4.10;1.00
3701;DHT22;1866;48.374;10.766;2023-04-03T11:56:51;4.20;1.00
3701;DHT22;1866;48.374;10.766;2023-04-03T11:59:23;4.30;1.00
3701;DHT22;1866;48.374;10.766;2023-04-03T12:01:54;4.20;1.00
3701;DHT22;1866;48.374;10.766;2023-04-03T12:04:25;4.20;1.00
3701;DHT22;1866;48.374;10.766;2023-04-03T12:07:02;4.40;1.00
3701;DHT22;1866;48.374;10.766;2023-04-03T12:12:56;4.80;1.00
3701;DHT22;1866;48.374;10.766;2023-04-03T12:15:46;4.90;1.00
3701;DHT22;1866;48.374;10.766;2023-04-03T12:18:42;4.80;1.00
3701;DHT22;1866;48.374;10.766;2023-04-03T12:21:10;5.00;1.00
3701;DHT22;1866;48.374;10.766;2023-04-03T12:23:58;5.10;1.00
3701;DHT22;1866;48.374;10.766;2023-04-03T12:26:31;5.40;1.00
3701;DHT22;1866;48.374;10.766;2023-04-03T12:29:01;5.20;1.00
3701;DHT22;1866;48.374;10.766;2023-04-03T12:31:42;5.40;1.00
3701;DHT22;1866;48.374;10.766;2023-04-03T12:34:24;5.20;1.00
3701;DHT22;1866;48.374;10.766;2023-04-03T12:37:00;5.60;1.00
3701;DHT22;1866;48.374;10.766;2023-04-03T12:39:52;5.70;1.00
3701;DHT22;1866;48.374;10.766;2023-04-03T12:42:37;5.70;1.00
3701;DHT22;1866;48.374;10.766;2023-04-03T12:45:16;5.90;1.00
3701;DHT22;1866;48.374;10.766;2023-04-03T12:47:45;5.40;1.00
3701;DHT22;1866;48.374;10.766;2023-04-03T12:50:27;5.80;1.00
3701;DHT22;1866;48.374;10.766;2023-04-03T12:53:01;5.50;1.00
3701;DHT22;1866;48.374;10.766;2023-04-03T12:55:28;5.40;1.00
3701;DHT22;1866;48.374;10.766;2023-04-03T12:57:55;5.90;1.00
3701;DHT22;1866;48.374;10.766;2023-04-03T13:00:29;5.50;1.00
3701;DHT22;1866;48.374;10.766;2023-04-03T13:02:59;5.50;1.00
3701;DHT22;1866;48.374;10.766;2023-04-03T13:05:31;5.80;1.00
3701;DHT22;1866;48.374;10.766;2023-04-03T13:08:00;5.80;1.00
3701;DHT22;1866;48.374;10.766;2023-04-03T13:10:29;6.10;1.00
3701;DHT22;1866;48.374;10.766;2023-04-03T13:12:58;6.10;1.00
3701;DHT22;1866;48.374;10.766;2023-04-03T13:15:39;5.80;1.00
3701;DHT22;1866;48.374;10.766;2023-04-03T13:18:22;5.70;1.00
3701;DHT22;1866;48.374;10.766;2023-04-03T13:20:52;5.80;1.00
3701;DHT22;1866;48.374;10.766;2023-04-03T13:23:20;6.10;1.00
3701;DHT22;1866;48.374;10.766;2023-04-03T13:25:48;6.20;1.00
3701;DHT22;1866;48.374;10.766;2023-04-03T13:28:20;6.00;1.00
3701;DHT22;1866;48.374;10.766;2023-04-03T13:30:59;5.80;1.00
3701;DHT22;1866;48.374;10.766;2023-04-03T13:33:29;5.70;1.00
3701;DHT22;1866;48.374;10.766;2023-04-03T13:36:02;5.60;1.00
3701;DHT22;1866;48.374;10.766;2023-04-03T13:38:32;5.50;1.00
3701;DHT22;1866;48.374;10.766;2023-04-03T13:41:03;5.40;1.00
3701;DHT22;1866;48.374;10.766;2023-04-03T13:43:31;5.40;1.00
3701;DHT22;1866;48.374;10.766;2023-04-03T13:46:06;5.30;1.00
3701;DHT22;1866;48.374;10.766;2023-04-03T13:48:50;5.40;1.00
3701;DHT22;1866;48.374;10.766;2023-04-03T13:51:21;5.40;1.00
3701;DHT22;1866;48.374;10.766;2023-04-03T13:53:51;5.30;1.00
3701;DHT22;1866;48.374;10.766;2023-04-03T13:56:26;5.30;1.00
3701;DHT22;1866;48.374;10.766;2023-04-03T13:58:57;5.40;1.00
3701;DHT22;1866;48.374;10.766;2023-04-03T14:01:25;5.40;1.00
3701;DHT22;1866;48.374;10.766;2023-04-03T14:03:55;5.50;1.00
3701;DHT22;1866;48.374;10.766;2023-04-03T14:06:24;5.30;1.00
3701;DHT22;1866;48.374;10.766;2023-04-03T14:08:52;5.30;1.00
3701;DHT22;1866;48.374;10.766;2023-04-03T14:11:22;5.30;1.00
3701;DHT22;1866;48.374;10.766;2023-04-03T14:13:50;5.60;1.00
3701;DHT22;1866;48.374;10.766;2023-04-03T14:16:20;5.70;1.00
3701;DHT22;1866;48.374;10.766;2023-04-03T14:18:48;5.60;1.00
3701;DHT22;1866;48.374;10.766;2023-04-03T14:21:17;5.50;1.00
3701;DHT22;1866;48.374;10.766;2023-04-03T14:23:46;5.80;1.00
3701;DHT22;1866;48.374;10.766;2023-04-03T14:26:13;6.10;1.00
3701;DHT22;1866;48.374;10.766;2023-04-03T14:28:42;5.80;1.00
3701;DHT22;1866;48.374;10.766;2023-04-03T14:31:10;5.80;1.00
3701;DHT22;1866;48.374;10.766;2023-04-03T14:33:37;6.00;1.00
3701;DHT22;1866;48.374;10.766;2023-04-03T14:36:12;6.50;1.00
3701;DHT22;1866;48.374;10.766;2023-04-03T14:38:39;6.60;1.00
3701;DHT22;1866;48.374;10.766;2023-04-03T14:41:10;6.90;1.00
3701;DHT22;1866;48.374;10.766;2023-04-03T14:43:38;6.40;1.00
3701;DHT22;1866;48.374;10.766;2023-04-03T14:46:08;5.90;1.00
3701;DHT22;1866;48.374;10.766;2023-04-03T14:48:39;5.60;1.00
3701;DHT22;1866;48.374;10.766;2023-04-03T14:51:11;5.40;1.00
3701;DHT22;1866;48.374;10.766;2023-04-03T14:53:39;5.50;1.00
3701;DHT22;1866;48.374;10.766;2023-04-03T14:56:13;5.30;1.00
3701;DHT22;1866;48.374;10.766;2023-04-03T14:58:42;5.20;1.00
3701;DHT22;1866;48.374;10.766;2023-04-03T15:01:10;5.10;1.00
3701;DHT22;1866;48.374;10.766;2023-04-03T15:03:39;5.10;1.00
3701;DHT22;1866;48.374;10.766;2023-04-03T15:06:09;5.30;1.00
3701;DHT22;1866;48.374;10.766;2023-04-03T15:08:39;5.70;1.00
3701;DHT22;1866;48.374;10.766;2023-04-03T15:11:08;6.00;1.00
3701;DHT22;1866;48.374;10.766;2023-04-03T15:13:37;6.20;1.00
3701;DHT22;1866;48.374;10.766;2023-04-03T15:16:04;6.10;1.00
3701;DHT22;1866;48.374;10.766;2023-04-03T15:18:35;6.10;1.00
3701;DHT22;1866;48.374;10.766;2023-04-03T15:21:04;5.70;1.00
3701;DHT22;1866;48.374;10.766;2023-04-03T15:23:31;5.70;1.00
3701;DHT22;1866;48.374;10.766;2023-04-03T15:25:58;5.80;1.00
3701;DHT22;1866;48.374;10.766;2023-04-03T15:28:30;5.80;1.00
3701;DHT22;1866;48.374;10.766;2023-04-03T15:31:00;5.90;1.00
3701;DHT22;1866;48.374;10.766;2023-04-03T15:33:27;6.10;1.00
3701;DHT22;1866;48.374;10.766;2023-04-03T15:35:54;6.30;1.00
3701;DHT22;1866;48.374;10.766;2023-04-03T15:38:22;6.20;1.00
3701;DHT22;1866;48.374;10.766;2023-04-03T15:40:50;6.30;1.00
3701;DHT22;1866;48.374;10.766;2023-04-03T15:43:18;6.30;1.00
3701;DHT22;1866;48.374;10.766;2023-04-03T15:45:46;5.90;1.00
3701;DHT22;1866;48.374;10.766;2023-04-03T15:48:14;5.90;1.00
3701;DHT22;1866;48.374;10.766;2023-04-03T15:50:41;5.60;1.00
3701;DHT22;1866;48.374;10.766;2023-04-03T15:53:09;5.60;1.00
3701;DHT22;1866;48.374;10.766;2023-04-03T15:55:37;5.30;1.00
3701;DHT22;1866;48.374;10.766;2023-04-03T15:58:04;5.30;1.00
3701;DHT22;1866;48.374;10.766;2023-04-03T16:00:32;5.60;1.00
3701;DHT22;1866;48.374;10.766;2023-04-03T16:03:00;5.80;1.00
3701;DHT22;1866;48.374;10.766;2023-04-03T16:05:31;6.10;1.00
3701;DHT22;1866;48.374;10.766;2023-04-03T16:07:59;6.20;1.00
3701;DHT22;1866;48.374;10.766;2023-04-03T16:10:27;6.20;1.00
3701;DHT22;1866;48.374;10.766;2023-04-03T16:12:54;6.10;1.00
3701;DHT22;1866;48.374;10.766;2023-04-03T16:15:21;6.20;1.00
3701;DHT22;1866;48.374;10.766;2023-04-03T16:17:48;5.90;1.00
3701;DHT22;1866;48.374;10.766;2023-04-03T16:20:16;5.80;1.00
3701;DHT22;1866;48.374;10.766;2023-04-03T16:22:45;5.90;1.00
3701;DHT22;1866;48.374;10.766;2023-04-03T16:25:12;5.70;1.00
3701;DHT22;1866;48.374;10.766;2023-04-03T16:27:40;5.40;1.00
3701;DHT22;1866;48.374;10.766;2023-04-03T16:30:08;5.20;1.00
3701;DHT22;1866;48.374;10.766;2023-04-03T16:32:37;5.10;1.00
3701;DHT22;1866;48.374;10.766;2023-04-03T16:35:05;5.00;1.00
3701;DHT22;1866;48.374;10.766;2023-04-03T16:37:32;5.00;1.00
3701;DHT22;1866;48.374;10.766;2023-04-03T16:40:00;4.90;1.00
3701;DHT22;1866;48.374;10.766;2023-04-03T16:42:27;4.90;1.00
3701;DHT22;1866;48.374;10.766;2023-04-03T16:44:54;4.90;1.00
3701;DHT22;1866;48.374;10.766;2023-04-03T16:47:21;5.00;1.00
3701;DHT22;1866;48.374;10.766;2023-04-03T16:49:48;5.10;1.00